Pagina principale
METAR-TAF:

METAR-TAF

Aeroporti :

Genova, Italia

Aeroporto di Genova-Sestri

latitudine: 44-25N, longitudine: 008-51E, altezza: 2 m

Osservazione

Il bollettino è stato emesso 39 minuti fa, alle 01:20 UTC
Vento 8 kt da est/sud-est
Temperature 25°C
Umidità 83%
Pressione 1017 hPa
Visibilità 10 km o più
Nubi sparse ad un'altezza di 1300 ft
Nuvoloso ad un'altezza di 2700 ft

METAR: LIMJ 240120Z 11008KT 9999 SCT013 BKN027 25/22 Q1017

Ora: 03:59 (01:59 UTC)

Previsione

Il bollettino è stato emesso 8 ore e 59 minuti fa, alle 17:00 UTC
Previsione valida dal 23 alle 18 UTC al 24 alle 18 UTC
Vento 8 kt da sud/sud-est
Visibilità 10 km o più
Nuvoloso ad un'altezza di 2000 ft

TAF: LIMJ 231700Z 2318/2418 15008KT 9999 BKN020

Osservazioni e previsioni meteorologiche di più di 4000 aeroporti (messaggi METAR e TAF).

Le stazioni disponibili sono rappresentate dai dischi gialli e rossi sulla carta.

Puntare il mouse per vedere il nome della stazione.

Clicca sopra per visualizzare le osservazioni e previsioni meteorologiche.

Per cambiare la mappa : fare clic sui pulsanti verdi con una croce nera per ingrandire, il pulsante verde con un trattino per diminuire, o sulla freccia verde per le mappe adiacenti.


METAR-TAF: